createdAt,value
2023-01-18T09:59:59.797Z,8.75
2023-01-18T10:02:39.398Z,8.90
2023-01-18T10:05:19.159Z,8.33
2023-01-18T10:08:02.688Z,8.93
2023-01-18T10:10:51.666Z,9.20
2023-01-18T10:14:15.173Z,8.25
2023-01-18T10:16:42.581Z,8.02
2023-01-18T10:19:24.369Z,9.05
2023-01-18T10:22:19.584Z,8.38
2023-01-18T10:25:35.587Z,6.55
2023-01-18T10:28:46.792Z,6.00
2023-01-18T10:32:04.506Z,6.10
2023-01-18T10:34:39.458Z,5.68
2023-01-18T10:37:37.607Z,7.22
2023-01-18T10:40:13.787Z,7.22
2023-01-18T10:42:51.780Z,7.72
2023-01-18T10:45:29.415Z,7.60
2023-01-18T10:48:12.850Z,8.07
2023-01-18T10:50:44.502Z,7.78
2023-01-18T10:53:23.819Z,9.10
2023-01-18T10:56:16.550Z,8.45
2023-01-18T10:59:00.848Z,6.45
2023-01-18T11:01:36.786Z,8.95
2023-01-18T11:04:22.219Z,8.35
2023-01-18T11:07:03.277Z,8.05
2023-01-18T11:09:52.107Z,7.03
2023-01-18T11:12:47.798Z,7.10
2023-01-18T11:15:15.024Z,6.60
2023-01-18T11:17:58.054Z,6.70
2023-01-18T11:20:55.852Z,6.75
2023-01-18T11:23:37.226Z,6.80
2023-01-18T11:26:19.184Z,7.15
2023-01-18T11:29:05.204Z,7.05
2023-01-18T11:31:49.676Z,7.05
2023-01-18T11:34:43.574Z,7.63
2023-01-18T11:37:40.812Z,7.50
2023-01-18T11:40:26.757Z,8.20
2023-01-18T11:43:25.987Z,6.78
2023-01-18T11:46:22.736Z,6.30
2023-01-18T11:49:35.465Z,6.35
2023-01-18T11:52:27.331Z,6.25
2023-01-18T11:55:03.844Z,7.75
2023-01-18T11:57:31.686Z,6.72
2023-01-18T11:59:59.885Z,6.88
2023-01-18T12:03:11.576Z,6.72
2023-01-18T12:06:31.412Z,6.53
2023-01-18T12:09:45.180Z,6.80
2023-01-18T12:13:42.069Z,7.03
2023-01-18T12:16:27.741Z,6.93
2023-01-18T12:19:50.760Z,6.50
2023-01-18T12:22:56.167Z,6.65
2023-01-18T12:26:06.840Z,6.93
2023-01-18T12:29:11.386Z,6.53
2023-01-18T12:32:24.431Z,7.13
2023-01-18T12:35:47.388Z,6.20
2023-01-18T12:38:49.232Z,7.55
2023-01-18T12:41:44.960Z,6.43
2023-01-18T12:45:04.647Z,6.03
2023-01-18T12:47:39.258Z,5.80
2023-01-18T12:50:27.759Z,6.07
2023-01-18T12:53:05.379Z,6.25
2023-01-18T12:55:36.197Z,6.38
2023-01-18T12:58:04.204Z,5.93
2023-01-18T13:00:37.942Z,6.25
2023-01-18T13:03:17.838Z,6.20
2023-01-18T13:06:00.692Z,6.40
2023-01-18T13:09:00.949Z,5.43
2023-01-18T13:11:41.873Z,5.38
2023-01-18T13:15:05.045Z,5.75
2023-01-18T13:17:55.857Z,5.70
2023-01-18T13:20:51.818Z,5.80
2023-01-18T13:24:00.014Z,5.95
2023-01-18T13:26:35.655Z,5.65
2023-01-18T13:29:30.066Z,5.32
2023-01-18T13:31:58.167Z,5.70
2023-01-18T13:34:47.674Z,5.05
2023-01-18T13:38:14.103Z,6.03
2023-01-18T13:40:56.364Z,6.63
2023-01-18T13:43:35.317Z,6.32
2023-01-18T13:46:07.369Z,6.18
2023-01-18T13:49:36.348Z,5.78
2023-01-18T13:52:42.361Z,5.43
2023-01-18T13:55:31.942Z,5.80
2023-01-18T13:57:59.756Z,5.75
2023-01-18T14:00:28.915Z,6.35
2023-01-18T14:03:15.892Z,7.28
2023-01-18T14:05:48.705Z,6.95
2023-01-18T14:08:29.147Z,6.97
2023-01-18T14:11:20.998Z,6.78
2023-01-18T14:13:48.478Z,6.28
2023-01-18T14:16:25.529Z,6.53
2023-01-18T14:19:22.234Z,7.60
2023-01-18T14:23:01.108Z,7.40
2023-01-18T14:25:56.693Z,7.28
2023-01-18T14:28:52.498Z,7.50
2023-01-18T14:31:33.286Z,6.85
2023-01-18T14:34:41.412Z,7.80
2023-01-18T14:37:34.480Z,7.90
2023-01-18T14:40:28.417Z,7.35
